createdAt,value
2018-04-27T00:00:38.364Z,13.23
2018-04-27T00:01:38.384Z,13.13
2018-04-27T00:02:38.406Z,13.12
2018-04-27T00:03:38.415Z,13.13
2018-04-27T00:04:38.388Z,13.17
2018-04-27T00:05:38.414Z,13.19
2018-04-27T00:06:38.453Z,13.24
2018-04-27T00:07:38.469Z,13.20
2018-04-27T00:08:38.456Z,13.26
2018-04-27T00:09:38.437Z,13.24
2018-04-27T00:10:38.459Z,13.30
2018-04-27T00:11:38.453Z,13.27
2018-04-27T00:12:38.515Z,13.13
2018-04-27T00:13:38.506Z,13.12
2018-04-27T00:14:38.493Z,13.19
2018-04-27T00:15:38.521Z,13.16
2018-04-27T00:16:38.503Z,13.13
2018-04-27T00:17:38.513Z,13.17
2018-04-27T00:18:38.557Z,13.23
2018-04-27T00:19:38.535Z,13.26
2018-04-27T00:20:38.554Z,13.28
2018-04-27T00:21:38.556Z,13.21
2018-04-27T00:22:38.568Z,13.21
2018-04-27T00:23:38.618Z,13.24
2018-04-27T00:24:38.606Z,13.23
2018-04-27T00:25:38.596Z,13.26
2018-04-27T00:26:38.597Z,13.27
2018-04-27T00:27:38.612Z,13.31
2018-04-27T00:28:38.623Z,13.26
2018-04-27T00:29:38.665Z,13.27
2018-04-27T00:30:38.660Z,13.39
2018-04-27T00:31:38.645Z,13.33
2018-04-27T00:32:38.655Z,13.30
2018-04-27T00:33:38.679Z,13.30
2018-04-27T00:34:38.696Z,13.39
2018-04-27T00:35:38.709Z,13.31
2018-04-27T00:36:38.691Z,13.31
2018-04-27T00:37:38.721Z,13.37
2018-04-27T00:38:38.704Z,13.37
2018-04-27T00:39:38.725Z,13.39
2018-04-27T00:40:38.796Z,13.46
2018-04-27T00:41:38.764Z,13.39
2018-04-27T00:42:38.738Z,13.36
2018-04-27T00:43:38.745Z,13.42
2018-04-27T00:44:38.781Z,13.47
2018-04-27T00:45:38.777Z,13.45
2018-04-27T00:46:38.823Z,13.47
2018-04-27T00:47:38.781Z,13.40
2018-04-27T00:48:38.804Z,13.42
2018-04-27T00:49:38.819Z,13.46
2018-04-27T00:50:38.847Z,13.43
2018-04-27T00:51:38.829Z,13.40
2018-04-27T00:52:38.915Z,13.45
2018-04-27T00:53:38.842Z,13.47
2018-04-27T00:54:38.848Z,13.50
2018-04-27T00:55:38.869Z,13.54
2018-04-27T00:56:38.868Z,13.58
2018-04-27T00:57:38.875Z,13.55
2018-04-27T00:58:38.928Z,13.45
2018-04-27T00:59:38.928Z,13.46
2018-04-27T01:00:38.912Z,13.47
2018-04-27T01:01:38.921Z,13.46
2018-04-27T01:02:38.925Z,13.46
2018-04-27T01:03:38.974Z,13.43
2018-04-27T01:04:38.941Z,13.43
2018-04-27T01:05:38.960Z,13.31
2018-04-27T01:06:38.991Z,13.39
2018-04-27T01:07:38.966Z,13.31
2018-04-27T01:08:39.030Z,13.37
2018-04-27T01:09:38.993Z,13.37
2018-04-27T01:10:38.996Z,13.43
2018-04-27T01:11:39.014Z,13.37
2018-04-27T01:12:39.012Z,13.27
2018-04-27T01:13:39.077Z,13.30
2018-04-27T01:14:39.043Z,13.23
2018-04-27T01:15:39.052Z,13.31
2018-04-27T01:16:39.062Z,13.39
2018-04-27T01:17:39.079Z,13.26
2018-04-27T01:18:39.113Z,13.27
2018-04-27T01:19:39.076Z,13.26
2018-04-27T01:20:39.084Z,13.23
2018-04-27T01:21:39.107Z,13.24
2018-04-27T01:22:39.103Z,13.28
2018-04-27T01:23:39.156Z,13.28
2018-04-27T01:24:39.147Z,13.26
2018-04-27T01:25:39.130Z,13.28
2018-04-27T01:26:39.183Z,13.26
2018-04-27T01:27:39.158Z,13.21
2018-04-27T01:28:39.208Z,13.24
2018-04-27T01:29:39.165Z,13.26
2018-04-27T01:30:39.221Z,13.13
2018-04-27T01:31:39.215Z,13.20
2018-04-27T01:32:39.205Z,13.09
2018-04-27T01:33:39.263Z,13.08
2018-04-27T01:34:39.209Z,13.11
2018-04-27T01:35:39.282Z,13.16
2018-04-27T01:36:39.236Z,13.06
2018-04-27T01:37:39.235Z,13.08
2018-04-27T01:38:39.243Z,13.05
2018-04-27T01:39:39.277Z,13.06
2018-04-27T01:40:39.329Z,13.05
2018-04-27T01:41:39.272Z,13.08
2018-04-27T01:42:39.294Z,13.09
2018-04-27T01:43:39.295Z,13.05
2018-04-27T01:44:39.309Z,12.98
2018-04-27T01:45:39.307Z,12.93
2018-04-27T01:46:39.391Z,12.98
2018-04-27T01:47:39.336Z,13.01
2018-04-27T01:48:39.346Z,12.90
2018-04-27T01:49:39.359Z,12.93
2018-04-27T01:50:39.351Z,12.94
2018-04-27T01:51:39.373Z,12.91
2018-04-27T01:52:39.437Z,12.93
2018-04-27T01:53:39.404Z,12.93
2018-04-27T01:54:39.402Z,12.87
2018-04-27T01:55:39.430Z,12.86
2018-04-27T01:56:39.406Z,12.81
2018-04-27T01:57:39.452Z,12.86
2018-04-27T01:58:39.425Z,12.84
2018-04-27T01:59:39.459Z,12.75
2018-04-27T02:00:39.477Z,12.76
2018-04-27T02:01:39.450Z,12.81
2018-04-27T02:02:39.522Z,12.86
2018-04-27T02:03:39.483Z,12.73
2018-04-27T02:04:39.496Z,12.73
2018-04-27T02:05:39.483Z,12.73
2018-04-27T02:06:39.505Z,12.69
2018-04-27T02:07:39.507Z,12.70
2018-04-27T02:08:39.580Z,12.63
2018-04-27T02:09:39.519Z,12.57
2018-04-27T02:10:39.538Z,12.58
2018-04-27T02:11:39.543Z,12.61
2018-04-27T02:12:39.545Z,12.61
2018-04-27T02:13:39.541Z,12.53
2018-04-27T02:14:39.580Z,12.61
2018-04-27T02:15:39.617Z,12.53
2018-04-27T02:16:39.572Z,12.51
2018-04-27T02:17:39.586Z,12.51
2018-04-27T02:18:39.609Z,12.51
2018-04-27T02:19:39.592Z,12.55
2018-04-27T02:20:39.645Z,12.43
2018-04-27T02:21:39.623Z,12.53
2018-04-27T02:22:39.637Z,12.37
2018-04-27T02:23:39.679Z,12.43
2018-04-27T02:24:39.645Z,12.40
2018-04-27T02:25:39.654Z,12.43
2018-04-27T02:26:39.664Z,12.39
2018-04-27T02:27:39.661Z,12.36
2018-04-27T02:28:39.734Z,12.43
2018-04-27T02:29:39.702Z,12.43
2018-04-27T02:30:39.689Z,12.40
2018-04-27T02:31:39.718Z,12.33
2018-04-27T02:32:39.717Z,12.37
2018-04-27T02:33:39.723Z,12.35
2018-04-27T02:34:39.760Z,12.36
2018-04-27T02:35:39.737Z,12.35
2018-04-27T02:36:39.756Z,12.32
2018-04-27T02:37:39.757Z,12.29
2018-04-27T02:38:39.758Z,12.30
2018-04-27T02:39:39.798Z,12.28
2018-04-27T02:40:39.782Z,12.29
2018-04-27T02:41:39.800Z,12.28
2018-04-27T02:42:39.789Z,12.26
2018-04-27T02:43:39.799Z,12.36
2018-04-27T02:44:39.868Z,12.35
2018-04-27T02:45:39.846Z,12.25
2018-04-27T02:46:39.873Z,12.25
2018-04-27T02:47:39.847Z,12.17
2018-04-27T02:48:39.860Z,12.18
2018-04-27T02:49:39.858Z,12.20
2018-04-27T02:50:39.860Z,12.15
2018-04-27T02:51:39.886Z,12.17
2018-04-27T02:52:39.931Z,12.14
2018-04-27T02:53:39.893Z,12.18
2018-04-27T02:54:39.893Z,12.14
2018-04-27T02:55:39.909Z,12.05
2018-04-27T02:56:39.918Z,12.08
2018-04-27T02:57:39.925Z,12.12
2018-04-27T02:58:39.970Z,12.15
2018-04-27T02:59:39.943Z,12.12
2018-04-27T03:00:39.953Z,12.02
2018-04-27T03:01:39.958Z,11.97
2018-04-27T03:02:39.969Z,12.14
2018-04-27T03:03:39.998Z,12.02
2018-04-27T03:04:39.976Z,12.02
2018-04-27T03:05:39.991Z,12.00
2018-04-27T03:06:39.994Z,12.05
2018-04-27T03:07:40.016Z,11.93
2018-04-27T03:08:40.048Z,12.07
2018-04-27T03:09:40.031Z,12.15
2018-04-27T03:10:40.027Z,12.03
2018-04-27T03:11:40.033Z,12.07
2018-04-27T03:12:40.055Z,12.03
2018-04-27T03:13:40.098Z,12.08
2018-04-27T03:14:40.103Z,12.11
2018-04-27T03:15:40.071Z,12.07
2018-04-27T03:16:40.110Z,12.07
2018-04-27T03:17:40.088Z,12.14
2018-04-27T03:18:40.104Z,12.08
2018-04-27T03:19:40.146Z,12.08
2018-04-27T03:20:40.113Z,12.08
2018-04-27T03:21:40.130Z,12.11
2018-04-27T03:22:40.134Z,12.07
2018-04-27T03:23:40.163Z,12.02
2018-04-27T03:24:40.193Z,12.08
2018-04-27T03:25:40.187Z,12.08
2018-04-27T03:26:40.162Z,12.11
2018-04-27T03:27:40.191Z,12.03
2018-04-27T03:28:40.187Z,12.03
2018-04-27T03:29:40.197Z,11.97
2018-04-27T03:30:40.247Z,11.96
2018-04-27T03:31:40.236Z,12.02
2018-04-27T03:32:40.213Z,11.96
2018-04-27T03:33:40.221Z,11.99
2018-04-27T03:34:40.252Z,11.91
2018-04-27T03:35:40.246Z,11.96
2018-04-27T03:36:40.298Z,11.99
2018-04-27T03:37:40.253Z,11.95
2018-04-27T03:38:40.273Z,11.97
2018-04-27T03:39:40.281Z,11.95
2018-04-27T03:40:40.277Z,12.05
2018-04-27T03:41:40.340Z,12.00
2018-04-27T03:42:40.304Z,11.95
2018-04-27T03:43:40.310Z,11.93
2018-04-27T03:44:40.321Z,11.96
2018-04-27T03:45:40.348Z,11.96
2018-04-27T03:46:40.337Z,11.95
2018-04-27T03:47:40.368Z,11.89
2018-04-27T03:48:40.388Z,11.91
2018-04-27T03:49:40.351Z,11.95
2018-04-27T03:50:40.361Z,11.88
2018-04-27T03:51:40.381Z,11.88
2018-04-27T03:52:40.397Z,11.96
2018-04-27T03:55:12.427Z,11.93
2018-04-27T03:56:12.418Z,11.95
2018-04-27T03:57:12.427Z,11.95
2018-04-27T03:58:12.428Z,11.93
2018-04-27T03:59:12.462Z,11.95
2018-04-27T04:00:12.492Z,11.97
2018-04-27T04:01:12.543Z,11.95
2018-04-27T04:02:12.470Z,11.96
2018-04-27T04:03:12.494Z,11.96
2018-04-27T04:04:12.475Z,11.88
2018-04-27T04:05:12.497Z,11.96
2018-04-27T04:06:12.541Z,11.97
2018-04-27T04:07:12.516Z,11.97
2018-04-27T04:08:12.514Z,11.91
2018-04-27T04:09:12.516Z,11.91
2018-04-27T04:10:12.544Z,11.93
2018-04-27T04:11:12.570Z,11.95
2018-04-27T04:12:12.583Z,11.95
2018-04-27T04:13:12.565Z,11.91
2018-04-27T04:14:12.557Z,11.93
2018-04-27T04:15:12.577Z,11.93
2018-04-27T04:16:12.584Z,11.93
2018-04-27T04:17:12.630Z,11.97
2018-04-27T04:18:12.600Z,11.93
2018-04-27T04:19:12.598Z,12.05
2018-04-27T04:20:12.607Z,12.05
2018-04-27T04:21:12.633Z,12.10
2018-04-27T04:22:12.622Z,12.00
2018-04-27T04:23:12.667Z,12.10
2018-04-27T04:24:12.640Z,12.11
2018-04-27T04:25:12.649Z,12.14
2018-04-27T04:26:12.667Z,12.11
2018-04-27T04:27:12.676Z,12.18
2018-04-27T04:28:12.739Z,12.17
2018-04-27T04:29:12.712Z,12.17
2018-04-27T04:30:12.702Z,12.25
2018-04-27T04:31:12.715Z,12.29
2018-04-27T04:32:12.749Z,12.36
2018-04-27T04:33:12.755Z,12.36
2018-04-27T04:34:12.738Z,12.43
2018-04-27T04:35:12.756Z,12.45
2018-04-27T04:36:12.825Z,12.43
2018-04-27T04:37:12.762Z,12.55
2018-04-27T04:38:12.824Z,12.61
2018-04-27T04:39:12.781Z,12.69
2018-04-27T04:40:12.791Z,12.72
2018-04-27T04:41:12.845Z,12.69
2018-04-27T04:42:12.809Z,12.72
2018-04-27T04:43:12.819Z,12.80
2018-04-27T04:44:12.827Z,12.95
2018-04-27T04:45:12.908Z,13.09
2018-04-27T04:46:12.882Z,13.19
2018-04-27T04:47:12.855Z,13.19
2018-04-27T04:48:12.892Z,13.42
2018-04-27T04:49:12.878Z,13.61
2018-04-27T04:50:12.899Z,13.68
2018-04-27T04:51:12.887Z,13.91
2018-04-27T04:52:12.887Z,14.04
2018-04-27T04:53:12.941Z,14.38
2018-04-27T04:54:12.908Z,14.52
2018-04-27T04:55:12.925Z,14.51
2018-04-27T04:56:12.934Z,14.53
2018-04-27T04:57:12.960Z,14.63
2018-04-27T04:58:12.998Z,14.61
2018-04-27T04:59:12.964Z,14.89
2018-04-27T05:00:12.967Z,15.04
2018-04-27T05:01:12.973Z,15.22
2018-04-27T05:02:12.990Z,15.23
2018-04-27T05:03:13.035Z,15.25
2018-04-27T05:04:13.009Z,15.44
2018-04-27T05:05:13.019Z,15.47
2018-04-27T05:06:13.034Z,15.47
2018-04-27T05:07:13.028Z,15.44
2018-04-27T05:08:13.153Z,15.39
2018-04-27T05:09:13.073Z,15.44
2018-04-27T05:10:13.096Z,15.48
2018-04-27T05:11:13.076Z,15.48
2018-04-27T05:12:13.088Z,15.69
2018-04-27T05:13:13.089Z,15.69
2018-04-27T05:14:13.111Z,15.85
2018-04-27T05:15:13.155Z,16.06
2018-04-27T05:16:13.131Z,16.13
2018-04-27T05:17:13.132Z,16.24
2018-04-27T05:18:13.149Z,16.47
2018-04-27T05:19:13.173Z,16.49
2018-04-27T05:20:13.201Z,16.46
2018-04-27T05:21:13.181Z,16.54
2018-04-27T05:22:13.190Z,16.50
2018-04-27T05:23:13.195Z,16.57
2018-04-27T05:24:13.232Z,16.57
2018-04-27T05:25:13.259Z,16.58
2018-04-27T05:26:13.242Z,16.43
2018-04-27T05:27:13.241Z,16.28
2018-04-27T05:28:13.255Z,16.47
2018-04-27T05:29:13.267Z,16.82
2018-04-27T05:30:13.308Z,16.73
2018-04-27T05:31:13.290Z,16.92
2018-04-27T05:32:13.294Z,16.79
2018-04-27T05:33:13.322Z,16.69
2018-04-27T05:34:13.308Z,16.73
2018-04-27T05:35:13.366Z,16.54
2018-04-27T05:36:13.329Z,16.58
2018-04-27T05:37:13.362Z,16.57
2018-04-27T05:38:13.364Z,16.51
2018-04-27T05:39:13.360Z,16.50
2018-04-27T05:40:13.410Z,16.49
2018-04-27T05:41:13.459Z,16.43
2018-04-27T05:42:13.395Z,16.34
2018-04-27T05:43:13.402Z,16.31
2018-04-27T05:44:13.435Z,16.28
2018-04-27T05:45:13.431Z,16.29
2018-04-27T05:46:13.477Z,16.17
2018-04-27T05:47:13.455Z,16.09
2018-04-27T05:48:13.550Z,16.10
2018-04-27T05:49:13.504Z,16.09
2018-04-27T05:50:13.480Z,16.02
2018-04-27T05:51:13.549Z,15.84
2018-04-27T05:52:13.550Z,15.87
2018-04-27T05:53:13.508Z,15.90
2018-04-27T05:54:13.527Z,15.80
2018-04-27T05:55:13.541Z,15.78
2018-04-27T05:56:13.541Z,15.63
2018-04-27T05:57:13.596Z,15.62
2018-04-27T05:58:13.565Z,15.60
2018-04-27T05:59:13.581Z,15.66
2018-04-27T06:00:13.586Z,15.51
2018-04-27T06:01:13.597Z,15.52
2018-04-27T06:02:13.651Z,15.45
2018-04-27T06:03:13.626Z,15.48
2018-04-27T06:04:13.636Z,15.48
2018-04-27T06:05:13.633Z,15.59
2018-04-27T06:06:13.674Z,15.57
2018-04-27T06:07:13.693Z,15.57
2018-04-27T06:08:13.674Z,15.66
2018-04-27T06:09:13.686Z,15.54
2018-04-27T06:10:13.725Z,15.48
2018-04-27T06:11:13.695Z,15.62
2018-04-27T06:12:13.757Z,15.52
2018-04-27T06:13:13.729Z,15.66
2018-04-27T06:14:13.740Z,15.66
2018-04-27T06:15:13.736Z,15.67
2018-04-27T06:16:13.793Z,15.66
2018-04-27T06:17:13.819Z,15.66
2018-04-27T06:18:13.778Z,15.60
2018-04-27T06:19:13.779Z,15.57
2018-04-27T06:20:13.803Z,15.59
2018-04-27T06:21:13.823Z,15.65
2018-04-27T06:22:13.870Z,15.63
2018-04-27T06:23:13.828Z,15.69
2018-04-27T06:24:13.848Z,15.67
2018-04-27T06:25:13.844Z,15.62
2018-04-27T06:26:13.866Z,15.69
2018-04-27T06:27:13.907Z,15.65
2018-04-27T06:28:13.886Z,15.72
2018-04-27T06:29:13.893Z,15.81
2018-04-27T06:30:13.896Z,15.78
2018-04-27T06:31:13.905Z,15.80
2018-04-27T06:32:13.949Z,15.81
2018-04-27T06:33:13.973Z,15.91
2018-04-27T06:34:13.982Z,15.80
2018-04-27T06:35:13.955Z,15.80
2018-04-27T06:36:13.969Z,15.83
2018-04-27T06:37:13.981Z,15.76
2018-04-27T06:38:13.975Z,15.75
2018-04-27T06:39:14.014Z,15.83
2018-04-27T06:40:14.025Z,15.83
2018-04-27T06:41:14.052Z,15.66
2018-04-27T06:42:14.024Z,15.75
2018-04-27T06:43:14.053Z,15.70
2018-04-27T06:44:14.050Z,15.76
2018-04-27T06:45:14.050Z,15.66
2018-04-27T06:46:14.114Z,15.75
2018-04-27T06:47:14.095Z,15.75
2018-04-27T06:48:14.095Z,15.75
2018-04-27T06:49:14.093Z,15.76
2018-04-27T06:50:14.127Z,15.81
2018-04-27T06:51:14.112Z,15.85
2018-04-27T06:52:14.163Z,15.69
2018-04-27T06:53:14.145Z,15.81
2018-04-27T06:54:14.148Z,15.75
2018-04-27T06:55:14.155Z,15.72
2018-04-27T06:56:14.214Z,15.85
2018-04-27T06:57:14.192Z,15.81
2018-04-27T06:58:14.189Z,15.75
2018-04-27T06:59:14.240Z,15.81
2018-04-27T07:00:14.219Z,15.76
2018-04-27T07:01:14.271Z,15.88
2018-04-27T07:02:14.233Z,15.81
2018-04-27T07:03:14.288Z,15.83
2018-04-27T07:04:14.253Z,15.78
2018-04-27T07:05:14.349Z,15.75
2018-04-27T07:06:14.273Z,15.78
2018-04-27T07:07:14.285Z,15.70
2018-04-27T07:08:14.336Z,15.80
2018-04-27T07:09:14.321Z,15.83
2018-04-27T07:10:14.345Z,15.85
2018-04-27T07:11:14.402Z,15.96
2018-04-27T07:12:14.343Z,15.90
2018-04-27T07:13:14.347Z,15.94
2018-04-27T07:14:14.368Z,16.03
2018-04-27T07:15:14.379Z,15.99
2018-04-27T07:16:14.392Z,16.00
2018-04-27T07:17:14.422Z,15.99
2018-04-27T07:18:14.424Z,15.98
2018-04-27T07:19:14.417Z,15.92
2018-04-27T07:20:14.493Z,16.12
2018-04-27T07:21:14.434Z,16.00
2018-04-27T07:22:14.452Z,15.98
2018-04-27T07:23:14.471Z,15.96
2018-04-27T07:24:14.465Z,16.10
2018-04-27T07:25:14.511Z,16.03
2018-04-27T07:26:14.498Z,16.12
2018-04-27T07:27:14.495Z,16.13
2018-04-27T07:28:14.507Z,16.06
2018-04-27T07:29:14.533Z,16.16
2018-04-27T07:30:14.580Z,16.16
2018-04-27T07:31:14.586Z,16.17
2018-04-27T07:32:14.554Z,16.18
2018-04-27T07:33:14.563Z,16.17
2018-04-27T07:34:14.635Z,16.12
2018-04-27T07:35:14.581Z,16.16
2018-04-27T07:36:14.622Z,16.17
2018-04-27T07:37:14.604Z,16.18
2018-04-27T07:38:14.614Z,16.22
2018-04-27T07:39:14.625Z,16.29
2018-04-27T07:40:14.635Z,16.18
2018-04-27T07:41:14.709Z,16.17
2018-04-27T07:42:14.703Z,16.24
2018-04-27T07:43:14.670Z,16.22
2018-04-27T07:44:14.689Z,16.25
2018-04-27T07:45:14.770Z,16.24
2018-04-27T07:46:14.737Z,16.28
2018-04-27T07:47:14.731Z,16.28
2018-04-27T07:48:14.731Z,16.21
2018-04-27T07:49:14.742Z,16.31
2018-04-27T07:50:14.745Z,16.28
2018-04-27T07:51:14.779Z,16.26
2018-04-27T07:52:14.779Z,16.22
2018-04-27T07:53:14.787Z,16.32
2018-04-27T07:54:14.788Z,16.46
2018-04-27T07:55:14.909Z,16.31
2018-04-27T07:56:14.838Z,16.40
2018-04-27T07:57:14.837Z,16.40
2018-04-27T07:58:14.830Z,16.41
2018-04-27T07:59:14.888Z,16.39
2018-04-27T08:00:14.863Z,16.43
2018-04-27T08:01:14.863Z,16.41
2018-04-27T08:02:14.973Z,16.43
2018-04-27T08:03:14.914Z,16.49
2018-04-27T08:04:14.941Z,16.58
2018-04-27T08:05:14.906Z,16.61
2018-04-27T08:06:14.926Z,16.50
2018-04-27T08:07:15.021Z,16.59
2018-04-27T08:08:14.979Z,16.58
2018-04-27T08:09:15.000Z,16.51
2018-04-27T08:10:14.974Z,16.55
2018-04-27T08:11:15.012Z,16.59
2018-04-27T08:12:14.992Z,16.46
2018-04-27T08:13:14.992Z,16.54
2018-04-27T08:14:15.031Z,16.64
2018-04-27T08:15:15.061Z,16.57
2018-04-27T08:16:15.023Z,16.55
2018-04-27T08:17:15.034Z,16.51
2018-04-27T08:18:15.079Z,16.49
2018-04-27T08:19:15.067Z,16.50
2018-04-27T08:20:15.111Z,16.51
2018-04-27T08:21:15.081Z,16.55
2018-04-27T08:22:15.105Z,16.49
2018-04-27T08:23:15.207Z,16.58
2018-04-27T08:24:15.112Z,16.49
2018-04-27T08:25:15.212Z,16.54
2018-04-27T08:26:15.135Z,16.55
2018-04-27T08:27:15.155Z,16.50
2018-04-27T08:28:15.167Z,16.46
2018-04-27T08:29:15.205Z,16.54
2018-04-27T08:30:15.250Z,16.58
2018-04-27T08:31:15.253Z,16.61
2018-04-27T08:32:15.222Z,16.58
2018-04-27T08:33:15.219Z,16.64
2018-04-27T08:34:15.233Z,16.58
2018-04-27T08:35:15.271Z,16.59
2018-04-27T08:36:15.349Z,16.59
2018-04-27T08:37:15.306Z,16.66
2018-04-27T08:38:15.275Z,16.62
2018-04-27T08:39:15.275Z,16.69
2018-04-27T08:40:15.297Z,16.65
2018-04-27T08:41:15.307Z,16.58
2018-04-27T08:42:15.398Z,16.55
2018-04-27T08:43:15.353Z,16.68
2018-04-27T08:44:15.339Z,16.59
2018-04-27T08:45:15.340Z,16.55
2018-04-27T08:46:15.361Z,16.62
2018-04-27T08:47:15.450Z,16.57
2018-04-27T08:48:15.376Z,16.59
2018-04-27T08:49:15.393Z,16.69
2018-04-27T08:50:15.413Z,16.64
2018-04-27T08:51:15.415Z,16.59
2018-04-27T08:52:15.453Z,16.54
2018-04-27T08:53:15.476Z,16.58
2018-04-27T08:54:15.450Z,16.51
2018-04-27T08:55:15.451Z,16.64
2018-04-27T08:56:15.463Z,16.58
2018-04-27T08:57:15.485Z,16.61
2018-04-27T08:58:15.540Z,16.65
2018-04-27T08:59:15.498Z,16.65
2018-04-27T09:00:15.503Z,16.59
2018-04-27T09:01:15.526Z,16.76
2018-04-27T09:02:15.544Z,16.73
2018-04-27T09:03:15.584Z,16.68
2018-04-27T09:04:15.551Z,16.68
2018-04-27T09:05:15.569Z,16.66
2018-04-27T09:06:15.595Z,16.73
2018-04-27T09:07:15.582Z,16.68
2018-04-27T09:08:15.662Z,16.74
2018-04-27T09:09:15.627Z,16.73
2018-04-27T09:10:15.628Z,16.69
2018-04-27T09:11:15.627Z,16.76
2018-04-27T09:12:15.655Z,16.69
2018-04-27T09:13:15.741Z,16.68
2018-04-27T09:14:15.660Z,16.64
2018-04-27T09:15:15.670Z,16.91
2018-04-27T09:16:15.764Z,16.83
2018-04-27T09:17:15.696Z,16.86
2018-04-27T09:18:15.759Z,16.89
2018-04-27T09:19:15.719Z,16.86
2018-04-27T09:20:15.753Z,16.84
2018-04-27T09:21:15.748Z,16.87
2018-04-27T09:22:15.758Z,16.94
2018-04-27T09:23:15.813Z,16.82
2018-04-27T09:24:15.767Z,16.89
2018-04-27T09:25:15.780Z,16.84
2018-04-27T09:26:15.792Z,16.86
2018-04-27T09:27:15.825Z,16.94
2018-04-27T09:28:15.847Z,17.07
2018-04-27T09:29:15.852Z,16.94
2018-04-27T09:30:15.859Z,17.05
2018-04-27T09:31:15.896Z,17.01
2018-04-27T09:32:15.903Z,17.12
2018-04-27T09:33:15.872Z,17.09
2018-04-27T09:34:15.892Z,17.07
2018-04-27T09:35:15.891Z,17.10
2018-04-27T09:36:15.938Z,17.09
2018-04-27T09:37:15.921Z,17.10
2018-04-27T09:38:15.959Z,17.13
2018-04-27T09:39:15.932Z,17.16
2018-04-27T09:40:15.989Z,17.17
2018-04-27T09:41:15.961Z,17.17
2018-04-27T09:42:16.046Z,17.10
2018-04-27T09:43:15.997Z,17.17
2018-04-27T09:44:15.994Z,17.17
2018-04-27T09:45:16.022Z,17.22
2018-04-27T09:46:16.028Z,17.20
2018-04-27T09:47:16.141Z,17.19
2018-04-27T09:48:16.041Z,17.30
2018-04-27T09:49:16.068Z,17.22
2018-04-27T09:50:16.076Z,17.22
2018-04-27T09:51:16.119Z,17.24
2018-04-27T09:52:16.098Z,17.28
2018-04-27T09:53:16.115Z,17.23
2018-04-27T09:54:16.142Z,17.30
2018-04-27T09:55:16.136Z,17.28
2018-04-27T09:56:16.230Z,17.23
2018-04-27T09:57:16.168Z,17.30
2018-04-27T09:58:16.159Z,17.28
2018-04-27T09:59:16.163Z,17.23
2018-04-27T10:00:16.237Z,17.34
2018-04-27T10:01:16.184Z,17.38
2018-04-27T10:02:16.201Z,17.34
2018-04-27T10:03:16.209Z,17.35
2018-04-27T10:04:16.257Z,17.27
2018-04-27T10:05:16.256Z,17.34
2018-04-27T10:06:16.253Z,17.35
2018-04-27T10:07:16.263Z,17.37
2018-04-27T10:08:16.275Z,17.42
2018-04-27T10:09:16.328Z,17.37
2018-04-27T10:10:16.297Z,17.31
2018-04-27T10:11:16.324Z,17.39
2018-04-27T10:12:16.321Z,17.41
2018-04-27T10:13:16.325Z,17.50
2018-04-27T10:14:16.393Z,17.42
2018-04-27T10:15:16.432Z,17.46
2018-04-27T10:16:16.360Z,17.35
2018-04-27T10:17:16.381Z,17.42
2018-04-27T10:18:16.394Z,17.44
2018-04-27T10:19:16.411Z,17.49
2018-04-27T10:20:16.419Z,17.44
2018-04-27T10:21:16.453Z,17.38
2018-04-27T10:22:16.451Z,17.42
2018-04-27T10:23:16.454Z,17.32
2018-04-27T10:24:16.448Z,17.42
2018-04-27T10:25:16.502Z,17.44
2018-04-27T10:26:16.472Z,17.49
2018-04-27T10:27:16.496Z,17.54
2018-04-27T10:28:16.498Z,17.50
2018-04-27T10:29:16.504Z,17.63
2018-04-27T10:30:16.611Z,17.59
2018-04-27T10:31:16.539Z,17.73
2018-04-27T10:32:16.547Z,17.71
2018-04-27T10:33:16.576Z,17.72
2018-04-27T10:34:16.576Z,17.69
2018-04-27T10:35:16.604Z,17.69
2018-04-27T10:36:16.624Z,17.69
2018-04-27T10:37:16.640Z,17.75
2018-04-27T10:38:16.613Z,17.72
2018-04-27T10:39:16.652Z,17.82
2018-04-27T10:40:16.647Z,17.76
2018-04-27T10:41:16.650Z,17.79
2018-04-27T10:42:16.683Z,17.79
2018-04-27T10:43:16.686Z,17.87
2018-04-27T10:44:16.708Z,17.69
2018-04-27T10:45:16.702Z,17.79
2018-04-27T10:46:16.757Z,17.82
2018-04-27T10:47:16.713Z,17.82
2018-04-27T10:48:16.757Z,17.86
2018-04-27T10:49:16.748Z,17.86
2018-04-27T10:50:16.822Z,17.87
2018-04-27T10:51:16.798Z,17.88
2018-04-27T10:52:16.773Z,17.90
2018-04-27T10:53:16.802Z,17.80
2018-04-27T10:54:16.805Z,17.84
2018-04-27T10:55:16.835Z,17.84
2018-04-27T10:56:16.860Z,17.84
2018-04-27T10:57:16.842Z,17.84
2018-04-27T10:58:16.845Z,17.84
2018-04-27T10:59:16.918Z,17.87
2018-04-27T11:00:16.868Z,17.80
2018-04-27T11:01:16.889Z,17.76
2018-04-27T11:02:16.906Z,17.76
2018-04-27T11:03:16.930Z,17.78
2018-04-27T11:04:16.951Z,17.63
2018-04-27T11:05:16.938Z,17.78
2018-04-27T11:06:16.955Z,17.75
2018-04-27T11:07:16.979Z,17.75
2018-04-27T11:08:16.972Z,17.80
2018-04-27T11:09:17.001Z,17.87
2018-04-27T11:10:17.026Z,17.88
2018-04-27T11:11:17.009Z,17.94
2018-04-27T11:12:17.021Z,17.95
2018-04-27T11:13:17.033Z,17.98
2018-04-27T11:14:17.074Z,17.95
2018-04-27T11:15:17.054Z,18.03
2018-04-27T11:16:17.194Z,17.98
2018-04-27T11:17:17.094Z,18.12
2018-04-27T11:18:17.081Z,18.05
2018-04-27T11:19:17.140Z,18.02
2018-04-27T11:20:17.132Z,18.08
2018-04-27T11:21:17.131Z,18.06
2018-04-27T11:22:17.146Z,18.03
2018-04-27T11:23:17.158Z,18.02
2018-04-27T11:24:17.188Z,18.13
2018-04-27T11:25:17.178Z,18.16
2018-04-27T11:26:17.210Z,18.05
2018-04-27T11:27:17.188Z,18.08
2018-04-27T11:28:17.216Z,18.16
2018-04-27T11:29:17.221Z,18.27
2018-04-27T11:30:17.231Z,18.24
2018-04-27T11:31:17.295Z,18.27
2018-04-27T11:32:17.290Z,18.28
2018-04-27T11:33:17.266Z,18.28
2018-04-27T11:34:17.280Z,18.21
2018-04-27T11:35:17.377Z,18.34
2018-04-27T11:36:17.335Z,18.28
2018-04-27T11:37:17.349Z,18.34
2018-04-27T11:38:17.326Z,18.42
2018-04-27T11:39:17.346Z,18.41
2018-04-27T11:40:17.343Z,18.52
2018-04-27T11:41:17.448Z,18.55
2018-04-27T11:42:17.418Z,18.55
2018-04-27T11:43:17.403Z,18.55
2018-04-27T11:44:17.394Z,18.61
2018-04-27T11:45:17.416Z,18.61
2018-04-27T11:46:17.428Z,18.64
2018-04-27T11:47:17.503Z,18.70
2018-04-27T11:48:17.449Z,18.73
2018-04-27T11:49:17.452Z,18.68
2018-04-27T11:50:17.465Z,18.71
2018-04-27T11:51:17.474Z,18.73
2018-04-27T11:52:17.523Z,18.74
2018-04-27T11:53:17.505Z,18.74
2018-04-27T11:54:17.543Z,18.71
2018-04-27T11:55:17.532Z,18.81
2018-04-27T11:56:17.548Z,18.76
2018-04-27T11:57:17.587Z,18.78
2018-04-27T11:58:17.624Z,18.88
2018-04-27T11:59:17.601Z,18.86
2018-04-27T12:00:17.596Z,18.83
2018-04-27T12:01:17.654Z,18.89
2018-04-27T12:02:17.616Z,18.82
2018-04-27T12:03:17.639Z,18.94
2018-04-27T12:04:17.642Z,18.92
2018-04-27T12:05:17.662Z,18.91
2018-04-27T12:06:17.695Z,18.94
2018-04-27T12:07:17.671Z,18.94
2018-04-27T12:08:17.683Z,18.97
2018-04-27T12:09:17.696Z,18.96
2018-04-27T12:10:17.707Z,18.97
2018-04-27T12:11:17.769Z,19.00
2018-04-27T12:12:17.773Z,19.11
2018-04-27T12:13:17.761Z,19.04
2018-04-27T12:14:17.769Z,19.07
2018-04-27T12:15:17.815Z,19.12
2018-04-27T12:16:17.845Z,19.12
2018-04-27T12:17:17.830Z,19.09
2018-04-27T12:18:17.828Z,19.11
2018-04-27T12:19:17.823Z,19.12
2018-04-27T12:20:17.872Z,19.23
2018-04-27T12:21:17.900Z,19.24
2018-04-27T12:22:17.883Z,19.26
2018-04-27T12:23:17.888Z,19.30
2018-04-27T12:24:17.963Z,19.23
2018-04-27T12:25:17.909Z,19.24
2018-04-27T12:26:17.979Z,19.39
2018-04-27T12:27:17.958Z,19.34
2018-04-27T12:28:17.932Z,19.38
2018-04-27T12:29:17.944Z,19.37
2018-04-27T12:30:17.968Z,19.32
2018-04-27T12:31:18.070Z,19.34
2018-04-27T12:32:18.023Z,19.44
2018-04-27T12:33:18.035Z,19.42
2018-04-27T12:34:18.028Z,19.48
2018-04-27T12:35:18.096Z,19.45
2018-04-27T12:36:18.033Z,19.42
2018-04-27T12:37:18.049Z,19.52
2018-04-27T12:38:18.080Z,19.48
2018-04-27T12:39:18.072Z,19.44
2018-04-27T12:40:18.135Z,19.55
2018-04-27T12:41:18.099Z,19.52
2018-04-27T12:42:18.109Z,19.56
2018-04-27T12:43:18.123Z,19.59
2018-04-27T12:44:18.162Z,19.63
2018-04-27T12:45:18.181Z,19.62
2018-04-27T12:46:18.157Z,19.57
2018-04-27T12:47:18.236Z,19.59
2018-04-27T12:48:18.187Z,19.66
2018-04-27T12:49:18.201Z,19.57
2018-04-27T12:50:18.219Z,19.60
2018-04-27T12:51:18.225Z,19.56
2018-04-27T12:52:18.379Z,19.63
2018-04-27T12:53:18.271Z,19.71
2018-04-27T12:54:18.261Z,19.70